• Join FlightAware (Why Join?)
  • Login
  • US Flag GB Flag 
06:39 EDT


 

Airport Tracker/Info


-or-


 

Live Flight TrackerFlight Track Log ✈ SWA1729 ✈ 14-Apr-2013 ✈ KHOU - KELP

Flight Track Log - Related Links

Times and Time Zones

All times are in EDT time to prevent confusion due to time zone crossing. See the SWA1729 flight status page for this flight to view local times or setup timezone preferences in your user account.

Time Position Orientation Groundspeed Altitude Reporting Facility
EDT Latitude Longitude Course Direction KTS MPH feet Rate Location/Type
22:08 29.6156 -95.3011 208° Southwest 165 190 1,800  Level Houston Center
22:09 29.5656 -95.3289 206° Southwest 249 287 3,600 2,280 Climbing Houston Center
22:10 29.5547 -95.3883 258° West 258 297 5,800 3,060 Climbing Houston Center
22:11 29.5592 -95.4731 273° West 276 318 9,200 2,700 Climbing Houston Center
22:12 29.6006 -95.5511 301° West 286 329 11,400 2,040 Climbing Houston Center
22:13 29.6481 -95.6439 301° West 327 376 13,500 2,040 Climbing Houston Center
22:14 29.6975 -95.7408 300° West 348 400 15,700 2,400 Climbing Houston Center
22:15 29.7511 -95.8439 301° West 373 429 18,400 2,400 Climbing Houston Center
22:16 29.8031 -95.9461 300° West 370 426 20,600 2,100 Climbing Houston Center
22:17 29.8619 -96.0625 300° West 383 441 22,700 1,860 Climbing Houston Center
22:18 29.9175 -96.1700 301° West 390 449 24,400 1,560 Climbing Houston Center
22:19 29.9408 -96.2936 282° West 402 463 25,900 1,440 Climbing Houston Center
22:20 29.9483 -96.4250 274° West 410 472 27,400 1,620 Climbing Houston Center
22:21 29.9556 -96.5564 274° West 412 474 29,300 1,860 Climbing Houston Center
22:22 29.9853 -96.7050 283° West 402 463 31,200 1,500 Climbing Houston Center
22:23 30.0117 -96.8283 284° West 399 459 32,400 1,200 Climbing Houston Center
22:24 30.0367 -96.9539 283° West 403 464 33,700 1,200 Climbing Houston Center
22:25 30.0628 -97.0764 284° West 399 459 34,900 1,080 Climbing Houston Center
22:26 30.0886 -97.1978 284° West 394 453 36,000 480 Climbing Houston Center
22:27 30.1136 -97.3247 283° West 395 455 36,000  Level Houston Center
22:28 30.1383 -97.4483 283° West 392 451 36,000  Level Houston Center
22:29 30.1644 -97.5725 284° West 394 453 36,000  Level Houston Center
22:30 30.1894 -97.6958 283° West 389 448 36,000  Level Houston Center
22:31 30.2136 -97.8214 283° West 393 452 36,000  Level Houston Center
22:32 30.2414 -97.9597 283° West 391 450 36,000  Level Houston Center
22:33 30.2661 -98.0833 283° West 394 453 36,000  Level Houston Center
22:34 30.2906 -98.2072 283° West 395 455 36,000  Level Houston Center
22:35 30.3128 -98.3242 282° West 401 461 36,000  Level Houston Center
22:36 30.3389 -98.4500 284° West 398 458 36,000  Level Houston Center
22:37 30.3628 -98.5781 282° West 401 461 36,000  Level Houston Center
22:38 30.3878 -98.7053 283° West 401 461 36,000  Level Houston Center
22:39 30.4128 -98.8336 283° West 405 466 36,000  Level Houston Center
22:40 30.4386 -98.9628 283° West 408 470 36,000  Level Houston Center
22:41 30.4661 -99.1144 282° West 409 471 36,000  Level Houston Center
22:42 30.4914 -99.2433 283° West 407 468 36,000  Level Houston Center
22:43 30.5161 -99.3717 283° West 409 471 36,000  Level Houston Center
22:44 30.5403 -99.5003 282° West 410 472 36,000  Level Houston Center
22:45 30.5647 -99.6294 282° West 411 473 36,000  Level Houston Center
22:46 30.5856 -99.7553 281° West 403 464 36,000  Level Houston Center
22:47 30.6103 -99.8800 283° West 399 459 36,000  Level Houston Center
22:48 30.6361 -100.0067 283° West 405 466 36,000  Level Houston Center
22:49 30.6628 -100.1300 284° West 398 458 36,000  Level Houston Center
22:50 30.6861 -100.2550 282° West 394 453 36,000  Level Houston Center
22:51 30.7158 -100.4050 283° West 398 458 36,000  Level Houston Center
22:52 30.7417 -100.5267 284° West 390 449 36,000  Level Houston Center
22:53 30.7661 -100.6517 283° West 393 452 36,000  Level Houston Center
22:54 30.7850 -100.7783 280° West 395 455 36,000  Level Houston Center
22:55 30.8139 -100.9025 285° West 397 457 36,000  Level Houston Center
22:56 30.8381 -101.0283 283° West 397 457 36,000  Level Houston Center
22:57 30.8628 -101.1558 283° West 400 460 36,000  Level Houston Center
22:58 30.8892 -101.2794 284° West 394 453 36,000  Level Houston Center
22:59 30.9133 -101.4072 282° West 400 460 36,000  Level Houston Center
23:00 30.9394 -101.5550 282° West 391 450 36,000 -60 Level Houston Center
23:01 30.9622 -101.6811 282° West 394 453 35,900  Descending Houston Center
23:02 30.9872 -101.8069 283° West 396 456 36,000  Climbing Houston Center
23:03 31.0111 -101.9331 282° West 398 458 36,000  Level Houston Center
23:04 31.0342 -102.0600 282° West 398 458 36,000  Level Houston Center
23:06 31.0578 -102.1881 282° West 401 461 36,000  Level Houston Center
23:07 31.0814 -102.3169 282° West 402 463 36,000  Level Houston Center
23:08 31.1036 -102.4444 282° West 398 458 36,000  Level Houston Center
23:09 31.1264 -102.5725 282° West 400 460 36,000  Level Houston Center
23:10 31.1508 -102.6975 283° West 395 455 36,000  Level Houston Center
23:11 31.1769 -102.8472 282° West 394 453 36,000  Level Albuquerque Center
23:12 31.1997 -102.9725 282° West 395 455 36,000  Level Albuquerque Center
23:13 31.2206 -103.0981 281° West 394 453 36,000  Level Albuquerque Center
23:14 31.2428 -103.2211 282° West 390 449 36,000  Level Albuquerque Center
23:15 31.2639 -103.3469 281° West 393 452 36,000  Level Albuquerque Center
23:16 31.2847 -103.4703 281° West 389 448 36,000  Level Albuquerque Center
23:17 31.3108 -103.6200 282° West 391 450 36,000  Level Albuquerque Center
23:18 31.3333 -103.7436 282° West 390 449 36,000  Level Albuquerque Center
23:19 31.3533 -103.8714 280° West 392 451 36,000  Level Albuquerque Center
23:20 31.3764 -103.9983 282° West 396 456 36,000  Level Albuquerque Center
23:21 31.3986 -104.1256 282° West 399 459 36,000  Level Albuquerque Center
23:22 31.4211 -104.2553 282° West 405 466 36,000  Level Albuquerque Center
23:23 31.4431 -104.3858 281° West 409 471 36,000  Level Albuquerque Center
23:24 31.4619 -104.5150 280° West 408 470 36,000  Level Albuquerque Center
23:25 31.4742 -104.6447 276° West 407 468 36,000 -600 Level Albuquerque Center
23:26 31.4906 -104.8019 277° West 407 468 34,900 -2,160 Descending Albuquerque Center
23:27 31.5028 -104.9294 276° West 404 465 31,600 -3,420 Descending Albuquerque Center
23:28 31.5153 -105.0567 277° West 399 459 28,000 -3,240 Descending Albuquerque Center
23:29 31.5292 -105.1864 277° West 403 464 25,100 -2,700 Descending Albuquerque Center
23:30 31.5408 -105.3097 276° West 392 451 22,500 -2,700 Descending Albuquerque Center
23:31 31.5497 -105.4325 275° West 361 415 20,000 -2,820 Descending Albuquerque Center
23:31 31.5542 -105.4664 279° West 356 410 19,200 -2,280 Descending Albuquerque Center
23:32 31.5633 -105.5431 278° West 355 409 17,400 -2,460 Descending Albuquerque Center
23:33 31.5767 -105.6769 277° West 347 399 14,600 -2,580 Descending Albuquerque Center
23:34 31.5869 -105.7850 276° West 336 387 12,200 -2,100 Descending Albuquerque Center
23:35 31.6269 -105.8794 296° West 326 375 10,400 -1,320 Descending Albuquerque Center
23:36 31.6675 -105.9592 301° West 281 323 9,500 -1,080 Descending Albuquerque Center
23:37 31.7031 -106.0303 300° West 254 292 8,300 -840 Descending Albuquerque Center
23:38 31.7344 -106.0939 300° West 228 262 7,900 -540 Descending Albuquerque Center
23:39 31.7567 -106.1597 292° West 218 251 7,300 -840 Descending Albuquerque Center
23:40 31.7783 -106.2228 292° West 211 243 6,300 -1,080 Descending Albuquerque Center
23:41 31.7967 -106.2842 289° West 162 186 5,200 -900 Descending Albuquerque Center
23:42 31.7983 -106.3233 273° West 125 144 4,500 -660 Descending Albuquerque Center
23:44 31.8019 -106.3664 276° West 126 145 3,900 -600 Descending Albuquerque Center
23:45 31.8000 -106.3667 270° West  Level FlightAware Approximate
23:52 31.8072 -106.3764 270° West  Level Estimated
23:53 31.8072 -106.3764 270° West  Level Estimated
23:54 31.8072 -106.3764 270° West  Level Estimated
23:55 31.8072 -106.3764 270° West  Level Estimated